createdAt,value
2019-04-11T02:00:19.674Z,63.30
2019-04-11T02:02:50.743Z,63.50
2019-04-11T02:05:22.970Z,63.90
2019-04-11T02:07:53.168Z,64.90
2019-04-11T02:10:22.479Z,65.20
2019-04-11T02:12:51.616Z,65.30
2019-04-11T02:15:22.485Z,65.60
2019-04-11T02:17:51.814Z,66.00
2019-04-11T02:20:21.012Z,65.50
2019-04-11T02:22:54.990Z,65.40
2019-04-11T02:25:38.695Z,65.30
2019-04-11T02:28:10.624Z,64.60
2019-04-11T02:30:43.482Z,64.50
2019-04-11T02:33:14.127Z,64.80
2019-04-11T02:35:46.077Z,64.20
2019-04-11T02:38:16.477Z,64.20
2019-04-11T02:40:47.477Z,64.90
2019-04-11T02:43:17.677Z,64.50
2019-04-11T02:46:01.745Z,65.60
2019-04-11T02:48:18.423Z,65.90
2019-04-11T02:50:48.061Z,65.70
2019-04-11T02:53:17.649Z,65.10
2019-04-11T02:55:46.936Z,65.20
2019-04-11T02:58:16.637Z,65.30
2019-04-11T03:00:45.829Z,65.10
2019-04-11T03:03:15.267Z,64.60
2019-04-11T03:05:46.830Z,64.90
2019-04-11T03:08:19.251Z,64.70
2019-04-11T03:10:46.676Z,65.00
2019-04-11T03:13:16.782Z,66.20
2019-04-11T03:15:59.270Z,65.90
2019-04-11T03:18:39.116Z,66.10
2019-04-11T03:20:54.993Z,66.00
2019-04-11T03:23:21.032Z,66.80
2019-04-11T03:25:49.965Z,66.20
2019-04-11T03:28:23.013Z,66.60
2019-04-11T03:31:13.741Z,66.50
2019-04-11T03:36:41.776Z,67.00
2019-04-11T03:38:43.023Z,66.80
2019-04-11T03:41:12.738Z,67.00
2019-04-11T03:43:36.699Z,66.90
2019-04-11T03:46:15.858Z,67.00
2019-04-11T03:48:40.836Z,66.70
2019-04-11T03:50:59.574Z,66.00
2019-04-11T03:53:29.989Z,66.30
2019-04-11T03:56:01.633Z,66.20
2019-04-11T03:58:31.215Z,66.70
2019-04-11T04:01:05.445Z,66.60
2019-04-11T04:03:34.269Z,66.40
2019-04-11T04:06:04.511Z,66.20
2019-04-11T04:08:34.287Z,66.00
2019-04-11T04:11:09.005Z,66.70
2019-04-11T04:13:40.052Z,66.30
2019-04-11T04:16:34.241Z,66.10
2019-04-11T04:19:03.614Z,65.70
2019-04-11T04:21:42.652Z,66.20
2019-04-11T04:24:35.432Z,66.40
2019-04-11T04:27:04.547Z,67.60
2019-04-11T04:29:36.277Z,66.60
2019-04-11T04:32:07.861Z,67.20
2019-04-11T04:34:39.961Z,66.40
2019-04-11T04:37:09.169Z,65.70
2019-04-11T04:39:39.814Z,65.90
2019-04-11T04:42:21.041Z,65.30
2019-04-11T04:44:40.855Z,65.70
2019-04-11T04:47:21.007Z,65.80
2019-04-11T04:49:43.506Z,65.60
2019-04-11T04:52:14.412Z,66.20
2019-04-11T04:54:44.331Z,66.30
2019-04-11T04:57:15.592Z,65.90
2019-04-11T04:59:44.887Z,65.80
2019-04-11T05:02:14.967Z,65.80
2019-04-11T05:04:45.773Z,66.20
2019-04-11T05:07:17.244Z,66.60
2019-04-11T05:09:47.921Z,66.30
2019-04-11T05:12:18.419Z,66.70
2019-04-11T05:14:47.912Z,66.70
2019-04-11T05:17:17.623Z,66.60
2019-04-11T05:19:48.788Z,66.50
2019-04-11T05:22:19.016Z,66.50
2019-04-11T05:24:48.175Z,66.50
2019-04-11T05:27:18.275Z,67.10
2019-04-11T05:29:47.750Z,66.90
2019-04-11T05:32:17.151Z,67.10
2019-04-11T05:34:46.263Z,67.20
2019-04-11T05:37:15.407Z,66.70
2019-04-11T05:39:44.973Z,66.90
2019-04-11T05:42:17.721Z,67.20
2019-04-11T05:44:45.179Z,67.40
2019-04-11T05:47:18.129Z,67.30
2019-04-11T05:49:50.517Z,67.00
2019-04-11T05:52:19.831Z,67.10
2019-04-11T05:54:51.075Z,67.10
2019-04-11T05:57:24.273Z,67.00
2019-04-11T05:59:54.427Z,66.80
2019-04-11T06:02:27.487Z,65.90
2019-04-11T06:04:58.240Z,65.90
2019-04-11T06:07:50.154Z,65.30
2019-04-11T06:10:37.056Z,65.30
2019-04-11T06:13:20.860Z,65.20
2019-04-11T06:16:00.653Z,65.60
2019-04-11T06:18:35.265Z,65.70
2019-04-11T06:21:04.959Z,65.40
2019-04-11T06:23:47.828Z,65.50
2019-04-11T06:26:35.572Z,64.70
2019-04-11T06:29:17.434Z,64.50
2019-04-11T06:31:57.771Z,62.50
2019-04-11T06:34:28.515Z,60.60
2019-04-11T06:37:01.934Z,59.40
2019-04-11T06:39:33.547Z,59.00
2019-04-11T06:42:22.149Z,57.70
2019-04-11T06:44:54.328Z,56.90
2019-04-11T06:47:41.020Z,56.00
2019-04-11T06:50:17.899Z,56.10
2019-04-11T06:52:47.017Z,56.50
2019-04-11T06:55:33.009Z,55.70
2019-04-11T06:58:06.947Z,55.40
2019-04-11T07:00:37.351Z,55.40
2019-04-11T07:03:17.960Z,54.30
2019-04-11T07:05:40.614Z,53.50
2019-04-11T07:08:09.935Z,54.10
2019-04-11T07:10:49.467Z,54.20
2019-04-11T07:13:30.419Z,54.20
2019-04-11T07:16:00.460Z,53.60
2019-04-11T07:18:35.572Z,54.00
2019-04-11T07:21:10.517Z,53.80
2019-04-11T07:23:57.770Z,52.70
2019-04-11T07:26:29.469Z,52.30
2019-04-11T07:29:04.520Z,53.00
2019-04-11T07:31:38.129Z,51.90
2019-04-11T07:34:26.758Z,52.20
2019-04-11T07:37:14.920Z,51.50
2019-04-11T07:39:47.329Z,52.00
2019-04-11T07:42:30.944Z,50.90
2019-04-11T07:45:11.567Z,51.00
2019-04-11T07:47:48.279Z,50.90
2019-04-11T07:50:19.503Z,50.40
2019-04-11T07:52:53.754Z,50.70
2019-04-11T07:55:24.331Z,50.30
2019-04-11T07:57:55.104Z,50.60
2019-04-11T08:00:40.903Z,50.60
2019-04-11T08:03:17.740Z,50.40
2019-04-11T08:05:48.503Z,49.90
2019-04-11T08:08:36.697Z,49.50
2019-04-11T08:11:07.620Z,49.40
2019-04-11T08:13:41.376Z,49.50
2019-04-11T08:16:18.253Z,49.60
2019-04-11T08:18:49.059Z,48.90
2019-04-11T08:21:37.173Z,48.30
2019-04-11T08:24:28.336Z,48.70
2019-04-11T08:27:07.743Z,46.90
2019-04-11T08:29:38.205Z,48.30
2019-04-11T08:32:27.495Z,47.60
2019-04-11T08:35:13.663Z,47.90
2019-04-11T08:37:56.612Z,48.20
2019-04-11T08:40:28.111Z,47.40
2019-04-11T08:43:06.622Z,47.10
2019-04-11T08:45:40.389Z,46.10
2019-04-11T08:48:11.218Z,46.20
2019-04-11T08:50:42.817Z,45.50
2019-04-11T08:53:16.783Z,45.50
2019-04-11T08:55:53.694Z,44.90
2019-04-11T08:58:35.039Z,44.60
2019-04-11T09:01:05.807Z,44.80
2019-04-11T09:04:02.057Z,45.30
2019-04-11T09:06:28.440Z,45.50
2019-04-11T09:09:18.720Z,44.30
2019-04-11T09:11:49.810Z,44.00
2019-04-11T09:14:37.951Z,44.00
2019-04-11T09:17:12.303Z,45.50
2019-04-11T09:19:47.242Z,44.30
2019-04-11T09:22:19.148Z,44.60
2019-04-11T09:25:05.210Z,44.00
2019-04-11T09:27:49.026Z,43.90
2019-04-11T09:30:36.843Z,44.30
2019-04-11T09:33:24.661Z,42.10
2019-04-11T09:35:59.650Z,40.60
2019-04-11T09:38:52.764Z,41.80
2019-04-11T09:41:24.726Z,40.70
2019-04-11T09:43:56.007Z,39.80
2019-04-11T09:46:27.215Z,38.90
2019-04-11T09:48:58.352Z,38.80
2019-04-11T09:51:31.812Z,38.20
2019-04-11T09:54:12.082Z,39.00
2019-04-11T09:57:00.240Z,39.00
2019-04-11T09:59:44.023Z,39.90
2019-04-11T10:02:18.810Z,39.20
2019-04-11T10:04:50.189Z,38.60
2019-04-11T10:07:27.920Z,38.50
2019-04-11T10:10:04.768Z,39.10
2019-04-11T10:12:52.074Z,38.60
2019-04-11T10:15:24.046Z,38.30
2019-04-11T10:18:14.801Z,38.10
2019-04-11T10:20:40.512Z,38.30
2019-04-11T10:23:17.108Z,38.30
2019-04-11T10:25:47.525Z,40.70
2019-04-11T10:28:35.544Z,39.50
2019-04-11T10:31:06.687Z,38.90
2019-04-11T10:33:37.460Z,37.20
2019-04-11T10:36:25.396Z,38.80
2019-04-11T10:38:57.171Z,39.40
2019-04-11T10:41:30.697Z,40.10
2019-04-11T10:43:59.863Z,40.90
2019-04-11T10:46:43.862Z,40.80
2019-04-11T10:49:14.741Z,40.70
2019-04-11T10:51:54.451Z,39.30
2019-04-11T10:54:24.022Z,41.00
2019-04-11T10:57:01.760Z,39.00
2019-04-11T10:59:32.531Z,39.50
2019-04-11T11:02:21.385Z,39.80
2019-04-11T11:04:52.872Z,39.00
2019-04-11T11:07:22.006Z,35.80
2019-04-11T11:09:56.662Z,36.60
2019-04-11T11:12:27.698Z,36.30
2019-04-11T11:15:03.187Z,37.20
2019-04-11T11:18:00.965Z,35.60
2019-04-11T11:20:38.542Z,35.90
2019-04-11T11:23:22.504Z,35.50
2019-04-11T11:25:53.363Z,34.70
2019-04-11T11:28:24.172Z,34.70
2019-04-11T11:31:05.471Z,35.00
2019-04-11T11:33:35.509Z,34.30
2019-04-11T11:36:23.540Z,35.20
2019-04-11T11:39:00.380Z,38.60
2019-04-11T11:41:50.368Z,40.50
2019-04-11T11:44:22.371Z,36.60
2019-04-11T11:47:09.936Z,40.00
2019-04-11T11:49:48.777Z,37.30
2019-04-11T11:52:24.794Z,39.60
2019-04-11T11:54:54.364Z,38.30
2019-04-11T11:57:26.656Z,37.30
2019-04-11T11:59:58.658Z,35.40
2019-04-11T12:02:35.191Z,36.70
2019-04-11T12:05:14.864Z,34.70
2019-04-11T12:07:58.126Z,33.80
2019-04-11T12:10:37.922Z,34.20
2019-04-11T12:13:21.970Z,34.10
2019-04-11T12:15:59.496Z,35.50
2019-04-11T12:18:40.403Z,34.80
2019-04-11T12:21:09.416Z,36.20
2019-04-11T12:24:02.150Z,35.80
2019-04-11T12:26:30.428Z,36.70
2019-04-11T12:28:59.642Z,34.70
2019-04-11T12:31:35.593Z,34.80
2019-04-11T12:34:10.159Z,33.40
2019-04-11T12:36:46.622Z,33.30
2019-04-11T12:39:13.831Z,34.40
2019-04-11T12:41:59.799Z,34.00
2019-04-11T12:44:31.426Z,34.60
2019-04-11T12:47:07.586Z,36.50
2019-04-11T12:49:38.071Z,34.70
2019-04-11T12:52:20.649Z,36.10
2019-04-11T12:54:51.423Z,35.80
2019-04-11T12:57:38.655Z,35.10
2019-04-11T13:00:18.705Z,33.90
2019-04-11T13:03:06.067Z,32.00
2019-04-11T13:05:53.415Z,32.50
2019-04-11T13:08:24.199Z,33.00
2019-04-11T13:10:53.319Z,33.10
2019-04-11T13:13:26.771Z,33.20
2019-04-11T13:16:11.347Z,35.40
2019-04-11T13:18:49.894Z,34.40
2019-04-11T13:21:23.692Z,34.70
2019-04-11T13:23:57.281Z,32.40
2019-04-11T13:26:40.143Z,32.60
2019-04-11T13:29:10.923Z,33.70
2019-04-11T13:31:47.581Z,32.20
2019-04-11T13:34:21.411Z,35.60
2019-04-11T13:36:58.155Z,32.40
2019-04-11T13:39:27.970Z,33.70
2019-04-11T13:41:59.311Z,33.80
2019-04-11T13:44:28.432Z,35.00
2019-04-11T13:47:05.121Z,33.50
2019-04-11T13:49:41.768Z,34.90
2019-04-11T13:52:15.497Z,34.30
2019-04-11T13:54:46.534Z,34.90
2019-04-11T13:57:26.592Z,34.80
2019-04-11T14:00:18.994Z,34.90
2019-04-11T14:03:05.972Z,34.90
2019-04-11T14:05:42.652Z,34.50
2019-04-11T14:08:13.408Z,34.30
2019-04-11T14:10:45.155Z,34.00
2019-04-11T14:13:14.292Z,34.30
2019-04-11T14:15:45.063Z,34.60
2019-04-11T14:18:27.819Z,34.20
2019-04-11T14:21:16.611Z,34.20
2019-04-11T14:23:47.373Z,34.10
2019-04-11T14:26:23.955Z,34.70
2019-04-11T14:28:54.535Z,34.90
2019-04-11T14:31:43.578Z,35.00
2019-04-11T14:34:26.373Z,33.70
2019-04-11T14:36:57.151Z,33.90
2019-04-11T14:39:39.724Z,34.20
2019-04-11T14:42:22.926Z,35.70
2019-04-11T14:44:53.988Z,35.50
2019-04-11T14:47:27.795Z,35.40
2019-04-11T14:49:58.919Z,36.00
2019-04-11T14:52:41.883Z,35.00
2019-04-11T14:55:11.014Z,35.50
2019-04-11T14:57:41.784Z,35.70
2019-04-11T15:00:18.543Z,35.90
2019-04-11T15:02:52.196Z,35.20
2019-04-11T15:05:22.975Z,34.40
2019-04-11T15:07:52.092Z,34.80
2019-04-11T15:10:32.140Z,35.40
2019-04-11T15:13:01.254Z,35.50
2019-04-11T15:15:48.204Z,34.80
2019-04-11T15:18:17.983Z,34.80
2019-04-11T15:21:00.618Z,36.20
2019-04-11T15:23:31.953Z,36.60
2019-04-11T15:26:17.814Z,35.40
2019-04-11T15:28:48.577Z,35.20
2019-04-11T15:31:39.567Z,36.20
2019-04-11T15:34:09.376Z,36.60
2019-04-11T15:36:41.010Z,36.40
2019-04-11T15:39:28.058Z,36.90
2019-04-11T15:42:02.123Z,37.00
2019-04-11T15:44:36.283Z,36.20
2019-04-11T15:47:24.765Z,36.10
2019-04-11T15:50:07.863Z,36.80
2019-04-11T15:52:38.625Z,37.10
2019-04-11T15:55:27.231Z,36.50
2019-04-11T15:57:56.348Z,37.10
2019-04-11T16:00:43.951Z,37.20
2019-04-11T16:03:13.563Z,37.00
2019-04-11T16:05:47.223Z,37.60
2019-04-11T16:08:17.999Z,37.60
2019-04-11T16:10:51.723Z,36.90
2019-04-11T16:13:22.483Z,37.30
2019-04-11T16:16:02.119Z,38.10
2019-04-11T16:18:28.651Z,37.50
2019-04-11T16:20:59.403Z,37.80
2019-04-11T16:23:30.176Z,38.10
2019-04-11T16:25:59.303Z,38.10
2019-04-11T16:28:46.781Z,38.60
2019-04-11T16:31:15.894Z,38.10
2019-04-11T16:33:52.616Z,38.60
2019-04-11T16:36:26.942Z,38.50
2019-04-11T16:38:55.862Z,38.40
2019-04-11T16:41:42.852Z,38.60
2019-04-11T16:44:14.676Z,38.20
2019-04-11T16:47:01.894Z,39.00
2019-04-11T16:49:31.989Z,38.60
2019-04-11T16:52:01.112Z,38.80
2019-04-11T16:54:30.255Z,39.80
2019-04-11T16:56:59.372Z,39.80
2019-04-11T16:59:28.752Z,39.10
2019-04-11T17:01:58.147Z,39.20
2019-04-11T17:04:27.288Z,39.10
2019-04-11T17:07:16.301Z,39.30
2019-04-11T17:09:47.073Z,39.10
2019-04-11T17:12:16.205Z,39.70
2019-04-11T17:14:45.357Z,39.60
2019-04-11T17:17:15.561Z,39.50
2019-04-11T17:19:44.868Z,39.50
2019-04-11T17:22:13.987Z,39.50
2019-04-11T17:24:43.108Z,38.80
2019-04-11T17:27:12.244Z,38.70
2019-04-11T17:29:41.360Z,39.30
2019-04-11T17:32:10.480Z,39.40
2019-04-11T17:34:39.615Z,39.40
2019-04-11T17:37:08.747Z,39.70
2019-04-11T17:39:38.152Z,39.40
2019-04-11T17:42:07.292Z,40.10
2019-04-11T17:44:36.416Z,40.50
2019-04-11T17:47:05.533Z,40.90
2019-04-11T17:49:34.655Z,40.80
2019-04-11T17:52:05.186Z,40.70
2019-04-11T17:54:34.595Z,40.90
2019-04-11T17:57:03.721Z,40.30
2019-04-11T17:59:32.840Z,40.60
2019-04-11T18:02:01.984Z,40.40
2019-04-11T18:04:32.397Z,40.20
2019-04-11T18:07:02.008Z,40.30
2019-04-11T18:09:31.119Z,40.50
2019-04-11T18:12:00.238Z,41.00
2019-04-11T18:14:31.598Z,41.20
2019-04-11T18:17:03.776Z,41.20
2019-04-11T18:19:33.856Z,40.60
2019-04-11T18:22:08.228Z,40.50
2019-04-11T18:24:33.368Z,41.40
2019-04-11T18:27:02.501Z,41.00
2019-04-11T18:29:31.632Z,41.50
2019-04-11T18:32:00.753Z,41.20
2019-04-11T18:34:31.828Z,41.40
2019-04-11T18:37:02.640Z,41.30
2019-04-11T18:39:33.664Z,41.20
2019-04-11T18:42:03.571Z,41.20
2019-04-11T18:44:32.688Z,41.30
2019-04-11T18:47:01.804Z,41.40
2019-04-11T18:49:30.930Z,41.10
2019-04-11T18:52:00.053Z,41.30
2019-04-11T18:54:29.811Z,41.20
2019-04-11T18:56:58.947Z,41.00
2019-04-11T18:59:28.063Z,41.20
2019-04-11T19:01:57.215Z,41.40
2019-04-11T19:04:32.229Z,40.80
2019-04-11T19:06:57.147Z,41.20
2019-04-11T19:09:26.332Z,41.30
2019-04-11T19:11:55.460Z,41.20
2019-04-11T19:14:25.167Z,40.50
2019-04-11T19:16:54.631Z,40.40
2019-04-11T19:19:23.744Z,40.70
2019-04-11T19:21:52.884Z,40.70
2019-04-11T19:24:21.994Z,40.30
2019-04-11T19:26:51.112Z,40.50
2019-04-11T19:29:24.812Z,40.70
2019-04-11T19:31:52.120Z,41.10
2019-04-11T19:34:21.246Z,40.70
2019-04-11T19:36:50.360Z,40.30
2019-04-11T19:39:19.492Z,40.70
2019-04-11T19:41:48.876Z,40.50
2019-04-11T19:44:19.325Z,40.70
2019-04-11T19:46:50.974Z,41.20
2019-04-11T19:49:19.656Z,41.10
2019-04-11T19:51:50.749Z,41.30
2019-04-11T19:54:19.599Z,41.30
2019-04-11T19:56:53.791Z,41.80
2019-04-11T19:59:22.895Z,42.00
2019-04-11T20:01:53.206Z,42.00
2019-04-11T20:04:23.906Z,42.60
2019-04-11T20:06:53.801Z,42.50
2019-04-11T20:09:22.912Z,42.20
2019-04-11T20:11:52.027Z,42.20
2019-04-11T20:14:21.156Z,42.60
2019-04-11T20:16:52.085Z,42.10
2019-04-11T20:19:21.423Z,42.00
2019-04-11T20:21:50.563Z,41.70
2019-04-11T20:24:20.237Z,42.00
2019-04-11T20:26:50.313Z,41.90
2019-04-11T20:29:21.433Z,41.80
2019-04-11T20:31:50.858Z,41.40
2019-04-11T20:34:27.425Z,41.40
2019-04-11T20:36:51.092Z,41.70
2019-04-11T20:39:20.225Z,41.80
2019-04-11T20:41:53.280Z,42.10
2019-04-11T20:44:20.163Z,42.00
2019-04-11T20:46:49.556Z,42.20
2019-04-11T20:49:18.690Z,42.50
2019-04-11T20:51:47.815Z,43.20
2019-04-11T20:54:16.919Z,42.40
2019-04-11T20:56:46.356Z,41.20
2019-04-11T20:59:15.468Z,41.40
2019-04-11T21:01:44.789Z,42.20
2019-04-11T21:04:13.991Z,41.90
2019-04-11T21:06:43.108Z,41.40
2019-04-11T21:09:13.289Z,41.40
2019-04-11T21:11:42.455Z,41.30
2019-04-11T21:14:11.587Z,41.20
2019-04-11T21:16:40.696Z,41.60
2019-04-11T21:19:09.808Z,42.00
2019-04-11T21:21:38.940Z,41.60
2019-04-11T21:24:08.047Z,41.70
2019-04-11T21:26:37.175Z,42.10
2019-04-11T21:29:06.282Z,42.00
2019-04-11T21:31:35.416Z,42.60
2019-04-11T21:34:04.555Z,42.60
2019-04-11T21:36:33.672Z,42.50
2019-04-11T21:39:04.454Z,42.90
2019-04-11T21:41:36.284Z,43.50
2019-04-11T21:44:06.987Z,43.40
2019-04-11T21:46:38.472Z,43.50
2019-04-11T21:49:08.056Z,43.60
2019-04-11T21:51:41.490Z,43.50
2019-04-11T21:54:07.996Z,44.10
2019-04-11T21:56:37.123Z,44.20
2019-04-11T21:59:06.233Z,43.50
2019-04-11T22:01:35.832Z,43.50
2019-04-11T22:04:05.304Z,43.70
2019-04-11T22:06:34.424Z,43.80
2019-04-11T22:09:05.676Z,44.00
2019-04-11T22:11:35.128Z,44.30
2019-04-11T22:14:05.059Z,44.30
